Time;durP1;ratioP1;P1;durP2;ratioP2;P2;SDS_P1;SDS_P2;PMS_P1;PMS_P2;Temp;Humidity;BMP_temperature;BMP_pressure;BME280_temperature;BME280_humidity;BME280_pressure;Samples;Min_cycle;Max_cycle;Signal;HPM_P1;HPM_P2
2021/11/21 00:00:41;;;;;;;7.00;6.30;;;;;;;11.72;73.70;100679.59;5039067;28;20185;-70
2021/11/21 00:03:07;;;;;;;6.80;6.10;;;;;;;10.66;78.13;100673.72;5039551;28;20202;-70
2021/11/21 00:05:32;;;;;;;10.23;7.60;;;;;;;10.72;79.02;100672.06;5038987;28;20817;-71
2021/11/21 00:07:58;;;;;;;9.63;6.90;;;;;;;10.43;79.71;100666.59;5039253;28;20666;-68
2021/11/21 00:10:23;;;;;;;8.47;7.67;;;;;;;10.37;80.12;100658.72;5039734;28;20265;-68
2021/11/21 00:12:49;;;;;;;9.83;6.70;;;;;;;10.03;81.06;100668.78;5038988;28;20186;-72
2021/11/21 00:15:14;;;;;;;8.77;7.87;;;;;;;10.00;81.16;100651.38;5039449;28;20212;-70
2021/11/21 00:17:40;;;;;;;6.83;6.23;;;;;;;9.97;81.15;100640.91;5039638;28;20181;-71
2021/11/21 00:20:06;;;;;;;9.50;7.57;;;;;;;10.29;80.52;100643.84;5039065;28;20178;-71
2021/11/21 00:22:35;;;;;;;8.00;6.93;;;;;;;10.25;79.28;100639.47;5038553;28;20210;-72
2021/11/21 00:25:01;;;;;;;9.27;6.70;;;;;;;9.91;80.99;100643.47;5039437;28;20512;-72
2021/11/21 00:27:27;;;;;;;7.47;6.70;;;;;;;9.97;80.81;100635.72;5021668;28;20449;-70
2021/11/21 00:29:54;;;;;;;10.90;7.70;;;;;;;9.81;81.99;100626.00;5038926;28;20443;-71
2021/11/21 00:32:20;;;;;;;10.23;7.20;;;;;;;10.34;80.33;100610.03;5039511;28;20170;-72
2021/11/21 00:34:45;;;;;;;9.30;7.23;;;;;;;10.24;79.95;100619.50;5040273;28;20428;-71
2021/11/21 00:37:11;;;;;;;9.50;7.70;;;;;;;10.21;79.89;100618.59;5039317;28;20395;-71
2021/11/21 00:39:37;;;;;;;8.43;6.50;;;;;;;10.14;79.73;100612.44;5022052;28;20170;-71
2021/11/21 00:42:02;;;;;;;11.33;7.60;;;;;;;10.10;79.72;100605.47;5038577;28;20471;-72
2021/11/21 00:44:27;;;;;;;10.10;7.37;;;;;;;9.82;80.89;100612.13;5038499;28;20178;-71
2021/11/21 00:46:54;;;;;;;9.67;6.97;;;;;;;9.91;81.06;100605.28;5039023;28;20170;-71
2021/11/21 00:49:20;;;;;;;7.57;6.87;;;;;;;10.19;80.26;100600.34;5038768;28;20186;-70
2021/11/21 00:51:46;;;;;;;8.10;7.40;;;;;;;10.31;78.64;100589.16;5045059;28;20442;-70
2021/11/21 00:54:42;;;;;;;9.33;7.17;;;;;;;10.26;78.79;100594.31;5058827;28;20793;-71
2021/11/21 00:56:59;;;;;;;7.77;6.97;;;;;;;10.43;78.33;100593.63;5057994;28;20414;-70
2021/11/21 00:59:25;;;;;;;7.63;6.70;;;;;;;10.40;79.37;100591.00;5058266;28;20443;-70
2021/11/21 01:01:51;;;;;;;8.83;7.00;;;;;;;10.24;79.33;100584.75;5057943;28;20450;-71
2021/11/21 01:04:17;;;;;;;8.20;7.40;;;;;;;10.22;79.05;100581.25;5058085;28;20201;-70
2021/11/21 01:06:44;;;;;;;8.90;7.10;;;;;;;10.61;77.11;100572.03;5058598;28;20477;-70
2021/11/21 01:09:10;;;;;;;9.77;6.97;;;;;;;10.24;79.13;100577.81;5058198;28;20427;-71
2021/11/21 01:11:35;;;;;;;7.40;6.27;;;;;;;10.13;78.45;100568.16;5057238;28;20729;-70
2021/11/21 01:14:01;;;;;;;7.80;6.57;;;;;;;10.06;78.75;100568.09;5058679;28;20187;-70
2021/11/21 01:16:27;;;;;;;7.27;6.50;;;;;;;10.18;78.64;100556.91;5058110;28;20416;-71
2021/11/21 01:18:53;;;;;;;9.50;6.80;;;;;;;10.44;77.61;100553.66;5058216;28;20585;-71
2021/11/21 01:21:21;;;;;;;7.47;6.67;;;;;;;10.48;77.16;100551.97;5058336;28;20586;-71
2021/11/21 01:23:47;;;;;;;9.80;7.27;;;;;;;10.36;77.49;100550.13;5060562;28;20636;-71
2021/11/21 01:26:13;;;;;;;8.47;6.93;;;;;;;10.14;77.73;100549.94;5061337;28;20499;-71
2021/11/21 01:28:42;;;;;;;8.67;6.67;;;;;;;10.41;77.84;100548.44;5062607;28;20173;-71
2021/11/21 01:31:07;;;;;;;10.53;6.77;;;;;;;10.09;77.94;100542.09;5061930;28;20422;-71
2021/11/21 01:33:33;;;;;;;7.30;6.50;;;;;;;10.21;77.70;100545.66;5062092;28;20768;-71
2021/11/21 01:35:58;;;;;;;7.17;6.50;;;;;;;10.26;78.48;100538.75;5062584;28;20170;-71
2021/11/21 01:38:24;;;;;;;7.93;6.90;;;;;;;10.11;78.26;100537.75;5061801;28;20169;-72
2021/11/21 01:40:49;;;;;;;9.27;7.20;;;;;;;10.09;78.36;100530.78;5061847;28;20257;-71
2021/11/21 01:43:15;;;;;;;7.93;7.00;;;;;;;10.19;78.51;100531.72;5062162;28;20197;-71
2021/11/21 01:45:41;;;;;;;8.50;6.50;;;;;;;10.13;78.53;100536.91;5061878;28;20177;-70
2021/11/21 01:48:09;;;;;;;7.57;6.23;;;;;;;10.13;nan;100526.47;5061772;28;20248;-71
2021/11/21 01:50:37;;;;;;;12.20;7.87;;;;;;;10.15;77.80;100525.63;5062274;28;20248;-71
2021/11/21 01:53:04;;;;;;;8.50;7.53;;;;;;;10.14;78.86;100525.63;5059118;28;20555;-72
2021/11/21 01:55:30;;;;;;;8.10;7.27;;;;;;;10.45;78.78;100530.22;5061616;28;20434;-72
2021/11/21 01:57:56;;;;;;;8.37;7.30;;;;;;;10.07;79.38;100522.09;5062038;28;20447;-71
2021/11/21 02:00:24;;;;;;;7.90;6.50;;;;;;;10.22;78.89;100517.00;5061472;28;20826;-71
2021/11/21 02:02:50;;;;;;;10.07;8.17;;;;;;;9.97;79.81;100515.91;5060412;28;20586;-72
2021/11/21 02:05:15;;;;;;;10.10;7.43;;;;;;;9.92;79.83;100512.44;5061986;28;20491;-71
2021/11/21 02:07:46;;;;;;;9.03;7.47;;;;;;;10.14;79.25;100499.59;5061502;28;20169;-71
2021/11/21 02:10:12;;;;;;;9.70;8.07;;;;;;;10.25;79.05;100493.56;5061205;28;20189;-71
2021/11/21 02:12:39;;;;;;;9.40;7.50;;;;;;;10.34;78.88;100482.34;5061365;28;20485;-71
2021/11/21 02:15:09;;;;;;;8.77;7.40;;;;;;;10.47;78.80;100485.91;5061353;28;20688;-71
2021/11/21 02:17:35;;;;;;;8.87;7.17;;;;;;;10.41;78.58;100484.16;5061342;28;20472;-71
2021/11/21 02:20:03;;;;;;;8.07;7.27;;;;;;;10.59;78.26;100474.69;5061683;28;20795;-71
2021/11/21 02:22:29;;;;;;;9.43;7.63;;;;;;;10.60;77.36;100472.09;5060737;28;20288;-71
2021/11/21 02:24:54;;;;;;;8.20;7.40;;;;;;;10.35;78.58;100473.72;5061125;28;20874;-71
2021/11/21 02:27:25;;;;;;;8.53;7.57;;;;;;;10.34;78.61;100479.75;5060762;28;20535;-71
2021/11/21 02:29:51;;;;;;;10.03;7.80;;;;;;;10.25;79.31;100474.47;5060265;28;20251;-71
2021/11/21 02:32:16;;;;;;;8.50;7.57;;;;;;;10.35;79.56;100468.50;5060174;28;20782;-70
2021/11/21 02:34:42;;;;;;;9.03;7.77;;;;;;;9.93;81.04;100475.09;5060081;28;20177;-70
2021/11/21 02:37:08;;;;;;;9.10;8.13;;;;;;;10.25;80.86;100474.47;5061113;28;20197;-71
2021/11/21 02:39:36;;;;;;;9.13;8.20;;;;;;;10.02;81.78;100467.34;5061352;28;20166;-72
2021/11/21 02:42:02;;;;;;;10.40;8.10;;;;;;;10.10;81.52;100476.09;5061230;28;20695;-72
2021/11/21 02:44:29;;;;;;;11.37;8.53;;;;;;;10.13;82.31;100469.19;5060669;28;20485;-71
2021/11/21 02:46:55;;;;;;;11.00;9.27;;;;;;;10.14;82.77;100469.19;5060774;28;20173;-70
2021/11/21 02:49:20;;;;;;;12.00;10.80;;;;;;;9.93;84.44;100469.88;5061727;28;20423;-70
2021/11/21 02:51:46;;;;;;;11.33;9.37;;;;;;;9.86;84.40;100468.09;5060210;28;20701;-71
2021/11/21 02:54:12;;;;;;;10.87;9.10;;;;;;;10.14;84.59;100468.31;5060497;28;20207;-71
2021/11/21 02:56:37;;;;;;;10.60;9.50;;;;;;;9.87;85.42;100464.66;5060910;28;20169;-71
2021/11/21 02:59:02;;;;;;;10.07;9.07;;;;;;;9.55;87.07;100463.50;5060412;28;20423;-71
2021/11/21 03:01:29;;;;;;;11.70;9.73;;;;;;;9.81;86.73;100464.56;5060246;28;20191;-72
2021/11/21 03:03:54;;;;;;;14.40;11.00;;;;;;;9.76;87.09;100452.41;5060702;28;20197;-71
2021/11/21 03:06:20;;;;;;;10.27;9.17;;;;;;;9.78;86.98;100450.69;5060147;28;20632;-71
2021/11/21 03:08:46;;;;;;;14.40;10.83;;;;;;;9.86;86.87;100449.88;5059484;28;20394;-71
2021/11/21 03:11:31;;;;;;;11.93;10.33;;;;;;;9.82;86.41;100448.09;5060433;28;20413;-71
2021/11/21 03:13:58;;;;;;;12.80;11.33;;;;;;;9.50;88.28;100446.97;5059409;28;20181;-71
2021/11/21 03:16:23;;;;;;;13.47;11.30;;;;;;;9.52;88.19;100449.59;5059360;28;20465;-71
2021/11/21 03:18:49;;;;;;;14.90;10.40;;;;;;;9.91;87.00;100445.56;5060015;28;20412;-70
2021/11/21 03:21:14;;;;;;;15.90;11.37;;;;;;;10.08;85.87;100446.56;5059933;28;20172;-71
2021/11/21 03:23:41;;;;;;;12.63;11.20;;;;;;;10.25;85.31;100445.81;5060215;28;20221;-71
2021/11/21 03:26:06;;;;;;;14.87;11.10;;;;;;;10.02;85.84;100450.88;5059796;28;20421;-70
2021/11/21 03:28:31;;;;;;;16.07;11.33;;;;;;;10.21;85.25;100449.25;5059814;28;20422;-70
2021/11/21 03:30:57;;;;;;;10.93;9.80;;;;;;;10.09;86.18;100455.25;5060159;28;20208;-71
2021/11/21 03:33:22;;;;;;;12.33;10.27;;;;;;;10.36;85.25;100441.56;5059606;28;20589;-71
2021/11/21 03:35:48;;;;;;;11.90;9.93;;;;;;;9.97;86.41;100445.59;5059534;28;20594;-71
2021/11/21 03:38:13;;;;;;;12.60;9.73;;;;;;;10.00;86.72;100444.75;5060257;28;20169;-71
2021/11/21 03:40:39;;;;;;;10.17;8.80;;;;;;;10.21;86.30;100457.06;5059575;28;20184;-71
2021/11/21 03:43:04;;;;;;;11.80;10.00;;;;;;;10.69;84.34;100454.75;5059358;28;20225;-71
2021/11/21 03:45:31;;;;;;;12.07;9.90;;;;;;;10.27;85.12;100462.34;5059793;28;20177;-71
2021/11/21 03:47:56;;;;;;;10.83;9.73;;;;;;;10.60;84.78;100459.06;5059467;28;20166;-70
2021/11/21 03:50:21;;;;;;;10.70;8.63;;;;;;;10.22;85.36;100464.91;5059429;28;20387;-71
2021/11/21 03:52:47;;;;;;;10.10;9.10;;;;;;;10.51;84.63;100456.41;5059120;28;20292;-71
2021/11/21 03:55:14;;;;;;;8.80;7.90;;;;;;;10.58;83.91;100457.31;5059364;28;20180;-72
2021/11/21 03:57:40;;;;;;;8.17;7.30;;;;;;;10.43;85.09;100453.78;5059494;28;20225;-70
2021/11/21 04:00:08;;;;;;;7.20;6.53;;;;;;;10.59;84.34;100449.53;5059019;28;20475;-71
2021/11/21 04:02:34;;;;;;;7.63;6.70;;;;;;;10.49;84.28;100450.31;5058902;28;20201;-71
2021/11/21 04:04:59;;;;;;;7.37;6.40;;;;;;;10.58;83.65;100446.88;5059611;28;20789;-71
2021/11/21 04:07:24;;;;;;;7.17;6.47;;;;;;;10.51;84.61;100440.75;5059168;28;20223;-71
2021/11/21 04:09:50;;;;;;;7.07;5.90;;;;;;;10.32;85.02;100449.31;5059124;28;20590;-72
2021/11/21 04:12:15;;;;;;;6.10;5.50;;;;;;;10.35;84.40;100438.94;5059295;28;20170;-71
2021/11/21 04:14:41;;;;;;;7.23;4.70;;;;;;;10.63;83.51;100439.97;5058101;28;20175;-70
2021/11/21 04:17:06;;;;;;;7.37;4.90;;;;;;;10.55;82.85;100441.66;5058023;28;20196;-70
2021/11/21 04:19:31;;;;;;;5.13;4.20;;;;;;;10.26;83.01;100444.94;5059356;28;20172;-70
2021/11/21 04:21:57;;;;;;;5.13;4.63;;;;;;;10.54;82.82;100439.91;5058583;28;20286;-71
2021/11/21 04:24:22;;;;;;;4.70;4.20;;;;;;;10.59;82.03;100439.09;5057990;28;20209;-71
2021/11/21 04:26:48;;;;;;;5.43;4.30;;;;;;;10.65;81.66;100442.56;5059235;28;20166;-71
2021/11/21 04:29:14;;;;;;;5.77;3.90;;;;;;;10.28;82.23;100451.03;5058764;28;20172;-70
2021/11/21 04:31:39;;;;;;;4.27;3.87;;;;;;;10.58;81.19;100436.44;5057846;28;20416;-71
2021/11/21 04:34:05;;;;;;;6.60;4.70;;;;;;;10.17;82.71;100439.69;5059067;28;20165;-71
2021/11/21 04:36:31;;;;;;;7.30;3.90;;;;;;;10.11;83.69;100440.53;5058543;28;20201;-71
2021/11/21 04:38:57;;;;;;;4.13;3.60;;;;;;;10.39;83.19;100433.78;5058813;28;20170;-72
2021/11/21 04:41:22;;;;;;;4.10;3.57;;;;;;;10.48;81.92;100440.75;5058870;28;20430;-72
2021/11/21 04:43:47;;;;;;;3.93;3.53;;;;;;;10.63;81.75;100432.13;5058263;28;20209;-72
2021/11/21 04:46:13;;;;;;;3.97;3.10;;;;;;;10.51;82.16;100445.13;5058298;28;20180;-71
2021/11/21 04:48:39;;;;;;;3.50;3.17;;;;;;;10.31;83.54;100443.25;5058944;28;20169;-71
2021/11/21 04:51:04;;;;;;;3.43;3.13;;;;;;;10.52;81.96;100441.66;5058222;28;20550;-71
2021/11/21 04:53:29;;;;;;;6.50;3.10;;;;;;;10.52;82.65;100433.84;5058020;28;20468;-71
2021/11/21 04:55:55;;;;;;;3.20;2.70;;;;;;;10.36;83.82;100431.13;5059161;28;20197;-70
2021/11/21 04:58:21;;;;;;;3.20;2.90;;;;;;;10.55;83.18;100423.41;5057690;28;20177;-70
2021/11/21 05:00:46;;;;;;;3.50;3.20;;;;;;;10.40;83.12;100438.09;5057548;28;20169;-71
2021/11/21 05:03:11;;;;;;;5.63;3.77;;;;;;;10.34;83.27;100445.88;5058322;28;20278;-71
2021/11/21 05:05:37;;;;;;;4.83;3.97;;;;;;;10.01;84.57;100438.69;5058054;28;20198;-71
2021/11/21 05:08:04;;;;;;;6.80;3.93;;;;;;;10.28;83.59;100438.91;5058164;28;20554;-71
2021/11/21 05:10:30;;;;;;;8.03;4.40;;;;;;;10.26;84.64;100439.75;5058408;28;20168;-71
2021/11/21 05:12:55;;;;;;;10.37;6.03;;;;;;;10.28;84.09;100438.91;5057779;28;20412;-71
2021/11/21 05:15:23;;;;;;;6.73;4.23;;;;;;;10.44;83.35;100439.88;5057921;28;20547;-71
2021/11/21 05:17:49;;;;;;;6.93;5.10;;;;;;;10.51;83.04;100445.13;5057737;28;20162;-71
2021/11/21 05:20:16;;;;;;;6.10;4.90;;;;;;;10.53;82.07;100432.97;5057958;28;20431;-71
2021/11/21 05:22:41;;;;;;;7.67;5.10;;;;;;;10.18;82.75;100436.22;5057670;28;20494;-70
2021/11/21 05:25:09;;;;;;;7.40;5.17;;;;;;;10.11;83.33;100437.91;5041182;28;20436;-70
2021/11/21 05:27:34;;;;;;;5.37;4.20;;;;;;;10.22;83.46;100430.16;5057160;28;20170;-71
2021/11/21 05:30:00;;;;;;;8.20;3.70;;;;;;;10.37;82.97;100437.22;5057937;28;20415;-71
2021/11/21 05:32:25;;;;;;;13.27;6.93;;;;;;;10.42;82.70;100427.72;5058089;28;20162;-70
2021/11/21 05:34:51;;;;;;;27.53;5.73;;;;;;;10.32;82.33;100434.53;5057300;28;20180;-71
2021/11/21 05:37:18;;;;;;;8.20;3.90;;;;;;;10.19;83.17;100435.34;5057835;28;20174;-71
2021/11/21 05:39:43;;;;;;;7.97;4.60;;;;;;;10.27;83.41;100437.13;5058255;28;20397;-71
2021/11/21 05:42:08;;;;;;;6.27;3.57;;;;;;;10.20;82.80;100437.09;5057556;28;20416;-71
2021/11/21 05:44:34;;;;;;;5.20;4.03;;;;;;;9.83;84.17;100439.44;5057594;28;20266;-71
2021/11/21 05:46:59;;;;;;;9.60;4.70;;;;;;;10.17;83.00;100437.06;5058276;28;20174;-71
2021/11/21 05:49:24;;;;;;;9.47;3.93;;;;;;;10.14;81.91;100435.31;5057173;28;20249;-72
2021/11/21 05:51:50;;;;;;;10.90;4.53;;;;;;;9.72;83.80;100436.75;5057441;28;20213;-70
2021/11/21 05:54:15;;;;;;;9.13;4.20;;;;;;;10.04;83.29;100439.59;5057369;28;20540;-71
2021/11/21 05:56:41;;;;;;;10.30;4.00;;;;;;;10.14;81.71;100430.09;5057578;28;20173;-70
2021/11/21 05:59:06;;;;;;;5.83;3.60;;;;;;;10.15;81.05;100437.06;5057667;28;20158;-70
2021/11/21 06:01:33;;;;;;;6.67;4.03;;;;;;;10.01;82.49;100433.50;5057873;28;20223;-71
2021/11/21 06:03:58;;;;;;;7.93;4.13;;;;;;;10.04;81.28;100430.91;5057398;28;20595;-71
2021/11/21 06:06:24;;;;;;;7.40;3.23;;;;;;;9.98;81.45;100434.34;5057515;28;20451;-70
2021/11/21 06:08:50;;;;;;;5.33;3.30;;;;;;;9.95;81.60;100426.50;5058745;28;20189;-71
2021/11/21 06:11:15;;;;;;;13.00;4.60;;;;;;;10.02;80.84;100430.03;5061120;28;20245;-70
2021/11/21 06:13:41;;;;;;;7.20;3.63;;;;;;;10.45;79.48;100427.72;5061174;28;20165;-72
2021/11/21 06:16:07;;;;;;;12.27;5.40;;;;;;;10.36;81.07;100428.53;5061795;28;20240;-70
2021/11/21 06:18:32;;;;;;;7.30;4.00;;;;;;;9.99;81.46;100427.41;5061315;28;20492;-71
2021/11/21 06:20:58;;;;;;;7.70;3.70;;;;;;;10.10;80.82;100430.94;5061048;28;20189;-71
2021/11/21 06:23:23;;;;;;;13.37;4.33;;;;;;;10.15;81.23;100438.78;5060757;28;20234;-71
2021/11/21 06:25:49;;;;;;;9.47;3.43;;;;;;;10.58;78.76;100441.66;5061024;28;20177;-71
2021/11/21 06:28:14;;;;;;;12.57;3.90;;;;;;;10.50;78.90;100438.16;5061030;28;20209;-71
2021/11/21 06:30:40;;;;;;;10.40;3.40;;;;;;;10.22;79.53;100437.97;5061218;28;20165;-70
2021/11/21 06:33:06;;;;;;;7.53;3.90;;;;;;;9.89;82.21;100432.56;5060889;28;20169;-70
2021/11/21 06:35:32;;;;;;;10.40;3.80;;;;;;;9.81;82.10;100436.84;5060889;28;20220;-71
2021/11/21 06:37:58;;;;;;;9.87;3.60;;;;;;;9.98;81.61;100433.47;5060419;28;20471;-71
2021/11/21 06:40:23;;;;;;;11.27;3.67;;;;;;;10.13;81.43;100440.53;5060667;28;20174;-71
2021/11/21 06:42:49;;;;;;;9.63;3.47;;;;;;;10.14;81.08;100439.66;5060519;28;20445;-71
2021/11/21 06:45:15;;;;;;;11.23;4.40;;;;;;;10.17;81.40;100434.47;5061039;28;20279;-71
2021/11/21 06:47:40;;;;;;;11.00;4.40;;;;;;;10.18;81.64;100442.28;5060607;28;20173;-71
2021/11/21 06:50:08;;;;;;;10.23;4.90;;;;;;;9.93;81.59;100438.63;5060706;28;20489;-70
2021/11/21 06:52:34;;;;;;;10.53;4.93;;;;;;;10.07;81.81;100446.56;5059647;28;20221;-71
2021/11/21 06:55:00;;;;;;;9.50;4.67;;;;;;;9.81;82.90;100451.56;5060369;28;20422;-71
2021/11/21 06:57:26;;;;;;;7.50;4.97;;;;;;;10.18;81.05;100451.84;5060516;28;20443;-72
2021/11/21 06:59:51;;;;;;;6.40;4.53;;;;;;;10.15;81.29;100436.19;5060382;28;20519;-70
2021/11/21 07:02:16;;;;;;;5.10;4.43;;;;;;;10.27;81.69;100444.09;5060333;28;20173;-70
2021/11/21 07:04:42;;;;;;;8.57;5.20;;;;;;;10.42;80.71;100443.34;5059931;28;20183;-70
2021/11/21 07:07:09;;;;;;;14.63;6.27;;;;;;;9.89;82.67;100442.06;5060270;28;20236;-70
2021/11/21 07:09:35;;;;;;;9.47;5.10;;;;;;;10.03;81.89;100453.47;5042988;28;20437;-71
2021/11/21 07:12:00;;;;;;;6.60;4.40;;;;;;;9.76;83.19;100447.19;5060379;28;20412;-72
2021/11/21 07:14:25;;;;;;;8.87;4.87;;;;;;;10.07;81.96;100455.25;5060138;28;20383;-71
2021/11/21 07:16:51;;;;;;;9.00;4.70;;;;;;;10.09;82.22;100448.31;5060063;28;20252;-70
2021/11/21 07:19:17;;;;;;;6.43;4.53;;;;;;;10.02;82.50;100456.06;5060605;28;20244;-71
2021/11/21 07:21:42;;;;;;;6.83;4.77;;;;;;;10.11;82.37;100451.78;5058316;28;20165;-71
2021/11/21 07:24:08;;;;;;;9.30;5.40;;;;;;;10.16;82.25;100453.56;5059283;28;20504;-70
2021/11/21 07:26:34;;;;;;;9.30;4.93;;;;;;;9.86;83.33;100458.53;5060727;28;20375;-71
2021/11/21 07:29:00;;;;;;;8.00;5.90;;;;;;;10.13;82.03;100456.16;5060045;28;20166;-72
2021/11/21 07:31:25;;;;;;;9.20;5.27;;;;;;;10.11;82.33;100457.00;5060078;28;20161;-71
2021/11/21 07:33:51;;;;;;;10.37;6.17;;;;;;;10.08;82.96;100457.00;5060386;28;20396;-71
2021/11/21 07:36:16;;;;;;;9.80;6.00;;;;;;;10.16;81.99;100458.78;5060047;28;20513;-72
2021/11/21 07:38:42;;;;;;;6.37;4.77;;;;;;;9.87;83.37;100462.91;5060288;28;20216;-72
2021/11/21 07:41:08;;;;;;;7.67;5.43;;;;;;;10.35;81.43;100465.88;5061002;28;20166;-72
2021/11/21 07:43:33;;;;;;;8.23;5.10;;;;;;;10.14;81.96;100469.19;5059464;28;20216;-70
2021/11/21 07:46:00;;;;;;;8.30;5.10;;;;;;;9.90;83.70;100464.66;5059738;28;20169;-70
2021/11/21 07:48:27;;;;;;;12.70;7.13;;;;;;;10.21;81.66;100478.78;5059107;28;20162;-67
2021/11/21 07:50:52;;;;;;;9.23;5.57;;;;;;;10.50;80.12;100472.03;5059062;28;20493;-70
2021/11/21 07:53:17;;;;;;;6.80;5.27;;;;;;;10.20;80.49;100474.44;5041564;28;20470;-69
2021/11/21 07:55:43;;;;;;;8.93;4.90;;;;;;;10.15;81.48;100473.53;5039604;28;20177;-70
2021/11/21 07:58:08;;;;;;;6.80;4.50;;;;;;;10.16;80.59;100477.00;5021900;28;20255;-68
2021/11/21 08:00:34;;;;;;;11.10;4.97;;;;;;;10.39;79.89;100478.06;5039284;28;20201;-68
2021/11/21 08:03:00;;;;;;;13.43;5.30;;;;;;;10.73;78.94;100472.16;5039342;28;20190;-69
2021/11/21 08:05:26;;;;;;;9.40;6.13;;;;;;;10.55;79.34;100484.25;5039003;28;20170;-67
2021/11/21 08:07:51;;;;;;;10.87;5.60;;;;;;;10.13;80.44;100490.88;5021789;28;20682;-69
2021/11/21 08:10:17;;;;;;;10.53;5.70;;;;;;;10.67;78.74;100485.16;5039592;28;20170;-67
2021/11/21 08:12:42;;;;;;;7.50;5.17;;;;;;;10.47;79.68;100485.06;5038815;28;20173;-69
2021/11/21 08:15:08;;;;;;;7.70;4.90;;;;;;;10.11;81.07;100493.47;5039018;28;20178;-68
2021/11/21 08:17:34;;;;;;;10.20;5.47;;;;;;;10.35;80.37;100499.75;5039538;28;20547;-70
2021/11/21 08:19:59;;;;;;;7.77;5.80;;;;;;;10.74;78.37;100498.25;5038972;28;20471;-71
2021/11/21 08:22:25;;;;;;;8.30;5.27;;;;;;;10.67;79.17;100493.00;5038300;28;20198;-71
2021/11/21 08:24:51;;;;;;;8.67;4.93;;;;;;;10.71;78.20;100487.78;5038794;28;20532;-71
2021/11/21 08:27:16;;;;;;;9.57;4.73;;;;;;;10.76;77.47;100501.72;5038590;28;20170;-70
2021/11/21 08:29:42;;;;;;;7.97;4.80;;;;;;;10.87;77.12;100498.31;5038827;28;20625;-71
2021/11/21 08:32:08;;;;;;;7.33;5.17;;;;;;;10.92;77.33;100507.88;5020877;28;20178;-71
2021/11/21 08:34:33;;;;;;;7.57;4.43;;;;;;;11.26;76.20;100509.75;5038518;28;20213;-71
2021/11/21 08:36:59;;;;;;;10.00;4.60;;;;;;;10.70;76.75;100519.97;5038426;28;20440;-71
2021/11/21 08:39:25;;;;;;;10.00;4.80;;;;;;;10.59;76.71;100509.47;5039332;28;20178;-70
2021/11/21 08:41:52;;;;;;;7.43;4.77;;;;;;;10.70;76.84;100509.53;5038631;28;20189;-73
2021/11/21 08:44:18;;;;;;;6.73;3.93;;;;;;;10.56;76.02;100500.75;5038610;28;20241;-70
2021/11/21 08:46:44;;;;;;;5.97;3.70;;;;;;;10.30;76.37;100509.25;5039094;28;20408;-72
2021/11/21 08:49:09;;;;;;;6.17;3.57;;;;;;;10.54;75.10;100502.47;5038458;28;20204;-70
2021/11/21 08:51:34;;;;;;;6.30;3.23;;;;;;;10.28;74.32;100503.13;5020850;28;20492;-71
2021/11/21 08:54:00;;;;;;;8.77;4.00;;;;;;;10.65;74.68;100499.91;5021661;28;20158;-71
2021/11/21 08:56:25;;;;;;;10.20;4.63;;;;;;;11.11;73.56;100503.63;5041406;28;20417;-69
2021/11/21 08:58:51;;;;;;;5.60;3.70;;;;;;;11.77;71.77;100500.28;5025855;28;20579;-69
2021/11/21 09:01:16;;;;;;;9.37;4.63;;;;;;;13.03;67.41;100495.75;5045166;28;20162;-68
2021/11/21 09:03:42;;;;;;;11.37;4.67;;;;;;;14.33;63.57;100502.72;5040351;28;20206;-69
2021/11/21 09:06:07;;;;;;;7.73;3.70;;;;;;;14.43;62.42;100496.47;5039930;28;20185;-69
2021/11/21 09:08:33;;;;;;;5.47;3.70;;;;;;;14.52;61.22;100494.66;5038899;28;20232;-73
2021/11/21 09:10:59;;;;;;;6.17;4.07;;;;;;;14.55;62.23;100490.25;5038213;28;20197;-72
2021/11/21 09:13:27;;;;;;;6.00;4.10;;;;;;;14.88;60.69;100488.13;5038105;28;20543;-69
2021/11/21 09:15:53;;;;;;;8.50;3.90;;;;;;;15.39;59.92;100497.97;5038495;28;20419;-70
2021/11/21 09:18:19;;;;;;;8.53;3.97;;;;;;;14.88;60.67;100496.00;5037986;28;20846;-72
2021/11/21 09:20:45;;;;;;;7.10;4.20;;;;;;;14.05;62.89;100502.97;5037853;28;20177;-72
2021/11/21 09:23:12;;;;;;;5.30;3.87;;;;;;;14.98;61.34;100496.78;5037979;28;20555;-72
2021/11/21 09:25:38;;;;;;;10.67;4.23;;;;;;;15.94;57.29;100482.28;5037830;28;20174;-72
2021/11/21 09:28:04;;;;;;;6.70;3.73;;;;;;;15.45;58.13;100484.78;5037929;28;20417;-70
2021/11/21 09:30:30;;;;;;;8.27;3.80;;;;;;;15.95;57.31;100487.53;5038149;28;20806;-71
2021/11/21 09:32:55;;;;;;;10.03;4.20;;;;;;;15.96;55.61;100494.50;5037592;28;20162;-73
2021/11/21 09:35:21;;;;;;;10.40;4.17;;;;;;;15.72;56.71;100493.13;5037561;28;20202;-70
2021/11/21 09:37:48;;;;;;;10.00;3.70;;;;;;;16.62;55.53;100502.13;5038391;28;20167;-72
2021/11/21 09:40:14;;;;;;;7.03;3.77;;;;;;;16.42;55.06;100494.59;5037892;28;20770;-73
2021/11/21 09:42:41;;;;;;;9.00;3.83;;;;;;;16.64;56.05;100495.06;5037342;28;20413;-71
2021/11/21 09:45:08;;;;;;;5.47;3.73;;;;;;;15.38;56.99;100500.63;5040994;28;20408;-71
2021/11/21 09:47:33;;;;;;;12.13;4.03;;;;;;;13.76;61.54;100504.06;5024393;28;20413;-71
2021/11/21 09:50:04;;;;;;;9.20;3.77;;;;;;;13.38;63.66;100502.56;5024448;28;20415;-71
2021/11/21 09:52:29;;;;;;;9.57;3.57;;;;;;;12.76;64.34;100509.81;5041406;28;20600;-67
2021/11/21 09:54:55;;;;;;;7.40;3.33;;;;;;;12.87;63.99;100515.00;5041642;28;20444;-68
2021/11/21 09:57:20;;;;;;;6.77;3.50;;;;;;;13.25;62.76;100501.72;5041641;28;20181;-69
2021/11/21 09:59:51;;;;;;;8.00;3.60;;;;;;;13.19;62.80;100501.78;5041406;28;20202;-69
2021/11/21 10:02:22;;;;;;;7.10;4.47;;;;;;;13.50;63.54;100511.22;5041330;28;20181;-68
2021/11/21 10:04:48;;;;;;;6.40;3.87;;;;;;;13.55;63.14;100504.22;5041414;28;20443;-69
2021/11/21 10:07:28;;;;;;;11.13;4.40;;;;;;;13.62;62.73;100511.16;5024212;28;20487;-71
2021/11/21 10:09:55;;;;;;;9.37;3.90;;;;;;;14.71;60.14;100517.22;5041495;28;20170;-71
2021/11/21 10:12:22;;;;;;;4.57;3.00;;;;;;;14.31;61.03;100512.34;5041190;28;20436;-72
2021/11/21 10:14:53;;;;;;;7.83;3.40;;;;;;;14.75;58.92;100505.81;5041244;28;20725;-73
2021/11/21 10:17:20;;;;;;;10.07;3.53;;;;;;;14.50;58.14;100505.16;5041122;28;20416;-72
2021/11/21 10:20:13;;;;;;;8.43;3.27;;;;;;;13.07;61.70;100522.75;5041379;28;20423;-73
2021/11/21 10:22:52;;;;;;;5.40;3.13;;;;;;;12.69;64.51;100515.91;5023922;28;20529;-72
2021/11/21 10:25:33;;;;;;;9.03;3.87;;;;;;;12.27;65.26;100529.03;5041075;28;20419;-71
2021/11/21 10:28:23;;;;;;;7.03;3.37;;;;;;;11.32;65.33;100533.25;5041126;28;20478;-71
2021/11/21 10:30:57;;;;;;;4.60;2.80;;;;;;;11.14;66.62;100525.38;5035950;28;20694;-72
2021/11/21 10:33:27;;;;;;;4.63;2.73;;;;;;;11.62;65.34;100524.66;5040106;28;20424;-71
2021/11/21 10:35:54;;;;;;;4.93;2.97;;;;;;;12.59;61.11;100517.69;5040734;28;20424;-71
2021/11/21 10:38:20;;;;;;;6.50;2.43;;;;;;;12.86;60.62;100510.63;5040865;28;20405;-71
2021/11/21 10:40:45;;;;;;;3.97;2.67;;;;;;;12.87;60.30;100509.78;5040820;28;20493;-71
2021/11/21 10:43:18;;;;;;;5.37;2.50;;;;;;;12.73;62.14;100515.91;5040789;28;20265;-71
2021/11/21 10:45:49;;;;;;;3.40;2.63;;;;;;;12.16;61.09;100517.75;5042004;28;20580;-71
2021/11/21 10:48:23;;;;;;;4.53;2.70;;;;;;;11.93;63.68;100519.47;5024525;28;20470;-74
2021/11/21 10:50:50;;;;;;;4.70;2.93;;;;;;;12.49;60.11;100509.00;5040541;28;20692;-70
2021/11/21 10:53:15;;;;;;;4.63;2.90;;;;;;;13.43;58.18;100503.41;5040296;28;20468;-70
2021/11/21 10:55:42;;;;;;;6.30;3.07;;;;;;;13.91;56.03;100513.56;5039300;28;20499;-69
2021/11/21 10:58:20;;;;;;;3.50;2.70;;;;;;;14.06;56.16;100509.06;5040412;28;20429;-70
2021/11/21 11:00:57;;;;;;;4.27;2.80;;;;;;;14.20;55.04;100504.56;5040486;28;20174;-70
2021/11/21 11:03:25;;;;;;;5.07;2.57;;;;;;;14.31;53.33;100501.84;5040173;28;20488;-69
2021/11/21 11:05:51;;;;;;;7.63;3.70;;;;;;;14.91;53.11;100501.25;5040291;28;20678;-68
2021/11/21 11:08:27;;;;;;;5.00;4.50;;;;;;;15.01;53.50;100502.00;5040248;28;20428;-70
2021/11/21 11:10:53;;;;;;;5.47;3.30;;;;;;;14.25;54.50;100500.16;5040161;28;20460;-69
2021/11/21 11:13:18;;;;;;;7.27;3.60;;;;;;;14.19;54.68;100492.34;5039936;28;20416;-70
2021/11/21 11:15:45;;;;;;;6.70;3.23;;;;;;;14.45;54.43;100506.94;5040967;28;20426;-70
2021/11/21 11:18:12;;;;;;;6.60;3.07;;;;;;;14.46;54.18;100499.09;5040036;28;20524;-70
2021/11/21 11:20:46;;;;;;;5.37;3.57;;;;;;;13.75;56.04;100502.31;5040117;28;20440;-70